< Typhoon 199209 1992 Season Typhoon 199211 >
Typhoon 199210 (JANIS)
General InformationTrack Information on Google MapsDetailed Wind InformationList of All Images || Disaster Info.ResourceGoogle EarthGE AnimationAtom FeedGeoJSON
Detalied Best Track (Time Zone = UTC)
Year Month Day Hour Lat. Long. Pressure (hPa) Wind (kt) Class Image Chart
1992 8 3 00 11.2 145.0 1006 0 2 Image Chart
1992 8 3 06 11.9 144.5 1004 0 2 Image Chart
1992 8 3 12 12.9 143.6 1004 0 2 Image Chart
1992 8 3 18 13.8 142.8 1000 35 3 Image Chart
1992 8 4 00 14.8 142.0 1000 35 3 Image Chart
1992 8 4 06 15.6 140.6 996 40 3 Image Chart
1992 8 4 12 16.5 139.8 990 50 4 Image Chart
1992 8 4 18 17.6 138.9 985 55 4 Image Chart
1992 8 5 00 18.7 137.5 970 65 5 Image Chart
1992 8 5 06 19.2 136.3 960 75 5 Image Chart
1992 8 5 12 19.9 135.1 955 75 5 Image Chart
1992 8 5 18 20.8 134.1 955 75 5 Image Chart
1992 8 6 00 21.7 133.2 950 80 5 Image Chart
1992 8 6 03 22.3 132.6 950 80 5 Image Chart
1992 8 6 06 22.8 132.2 945 80 5 Image Chart
1992 8 6 09 23.5 131.8 945 80 5 Image Chart
1992 8 6 12 24.1 131.3 940 90 5 Image Chart
1992 8 6 15 24.8 130.7 935 95 5 Image Chart
1992 8 6 18 25.3 130.2 935 95 5 Image Chart
1992 8 6 21 25.9 129.9 940 90 5 Image Chart
1992 8 7 00 26.5 129.6 940 90 5 Image Chart
1992 8 7 03 27.4 129.4 945 85 5 Image Chart
1992 8 7 06 28.1 129.3 945 85 5 Image Chart
1992 8 7 09 28.8 129.1 950 80 5 Image Chart
1992 8 7 12 29.4 129.1 950 80 5 Image Chart
1992 8 7 15 30.0 129.3 950 80 5 Image Chart
1992 8 7 18 30.8 129.7 955 75 5 Image Chart
1992 8 7 21 31.7 130.0 960 75 5 Image Chart
1992 8 8 00 32.7 130.5 965 70 5 Image Chart
1992 8 8 03 33.7 131.1 975 60 4 Image Chart
1992 8 8 04 33.9 131.2 975 60 4 Image Chart
1992 8 8 06 34.4 131.7 980 55 4 Image Chart
1992 8 8 09 35.0 133.0 980 55 4 Image Chart
1992 8 8 12 35.9 134.1 985 50 4 Image Chart
1992 8 8 15 36.6 135.0 985 50 4 Image Chart
1992 8 8 18 37.0 136.1 990 45 3 Image Chart
1992 8 8 21 37.8 137.4 994 40 3 Image Chart
1992 8 9 00 39.0 138.6 996 40 3 Image Chart
1992 8 9 03 39.7 139.3 996 0 6 Image Chart
1992 8 9 06 41.0 142.0 998 0 6 Image Chart
1992 8 9 12 43.0 144.0 998 0 6 Image Chart
1992 8 9 18 45.0 146.0 998 0 6 Image Chart
1992 8 10 00 47.0 147.0 998 0 6 Image Chart
1992 8 10 06 48.0 148.0 998 0 6 Image Chart
1992 8 10 12 49.0 149.0 1000 0 6 Image Chart
1992 8 10 18 50.0 150.0 1004 0 6 Image Chart
1992 8 11 00 51.0 151.0 1006 0 6 Image Chart
1992 8 11 06 52.0 152.0 1006 0 6 Image Chart
1992 8 11 12 53.0 154.0 1006 0 6 Image Chart
1992 8 11 18 54.0 155.0 1008 0 6 Image Chart
1992 8 12 00 54.0 160.0 1010 0 6 Image Chart
1992 8 12 06 54.0 162.0 1008 0 6 Image Chart
1992 8 12 12 55.0 165.0 1008 0 6 Image Chart
1992 8 12 18 56.0 168.0 1008 0 6 Image Chart
1992 8 13 00 56.0 172.0 1008 0 6 Image Chart
1992 8 13 06 56.0 178.0 1002 0 6 Image Chart
1992 8 13 12 56.0 181.0 1002 0 6 Image Chart
Japan Meteorological Agency Best Track Data | Correction Date : 1992-12-25
< Typhoon 199209 1992 Season Typhoon 199211 >

Help